createdAt,value
2023-05-14T00:00:01.732Z,10.04
2023-05-14T00:01:01.741Z,9.97
2023-05-14T00:02:01.889Z,9.91
2023-05-14T00:03:01.811Z,9.95
2023-05-14T00:04:01.741Z,9.91
2023-05-14T00:05:01.673Z,9.98
2023-05-14T00:06:01.704Z,9.89
2023-05-14T00:07:01.669Z,9.89
2023-05-14T00:08:02.265Z,9.80
2023-05-14T00:09:01.665Z,9.86
2023-05-14T00:10:01.728Z,9.77
2023-05-14T00:11:01.629Z,9.74
2023-05-14T00:12:01.645Z,9.80
2023-05-14T00:13:01.637Z,9.83
2023-05-14T00:14:01.794Z,9.86
2023-05-14T00:15:01.638Z,9.73
2023-05-14T00:16:01.625Z,9.66
2023-05-14T00:17:01.601Z,9.48
2023-05-14T00:18:01.665Z,9.44
2023-05-14T00:19:01.646Z,9.43
2023-05-14T00:20:01.621Z,9.39
2023-05-14T00:21:01.578Z,9.29
2023-05-14T00:22:01.555Z,9.29
2023-05-14T00:23:01.551Z,9.29
2023-05-14T00:24:01.539Z,9.32
2023-05-14T00:25:01.566Z,9.28
2023-05-14T00:26:01.537Z,9.26
2023-05-14T00:27:01.545Z,9.22
2023-05-14T00:28:01.532Z,9.23
2023-05-14T00:29:01.558Z,9.28
2023-05-14T00:30:01.539Z,9.26
2023-05-14T00:31:01.529Z,9.28
2023-05-14T00:32:01.483Z,9.19
2023-05-14T00:33:01.621Z,9.31
2023-05-14T00:34:01.501Z,9.19
2023-05-14T00:35:01.465Z,9.16
2023-05-14T00:36:01.459Z,9.22
2023-05-14T00:37:01.447Z,9.25
2023-05-14T00:38:01.437Z,9.25
2023-05-14T00:39:01.458Z,9.21
2023-05-14T00:40:01.439Z,9.28
2023-05-14T00:41:01.435Z,9.26
2023-05-14T00:42:01.410Z,9.19
2023-05-14T00:43:01.529Z,9.26
2023-05-14T00:44:01.429Z,9.28
2023-05-14T00:45:01.400Z,9.25
2023-05-14T00:46:01.433Z,9.23
2023-05-14T00:47:01.420Z,9.29
2023-05-14T00:48:01.436Z,9.26
2023-05-14T00:49:01.382Z,9.23
2023-05-14T00:50:01.343Z,9.23
2023-05-14T00:51:01.345Z,9.16
2023-05-14T00:52:01.325Z,9.19
2023-05-14T00:53:01.358Z,9.16
2023-05-14T00:54:01.345Z,9.21
2023-05-14T00:55:01.320Z,9.11
2023-05-14T00:56:02.309Z,9.23
2023-05-14T00:57:01.292Z,9.19
2023-05-14T00:58:01.309Z,9.18
2023-05-14T00:59:01.276Z,9.25
2023-05-14T01:00:01.283Z,9.14
2023-05-14T01:01:01.281Z,9.16
2023-05-14T01:02:01.275Z,9.16
2023-05-14T01:03:01.489Z,9.14
2023-05-14T01:04:01.336Z,9.11
2023-05-14T01:05:01.238Z,9.08
2023-05-14T01:06:01.216Z,9.04
2023-05-14T01:07:01.245Z,8.92
2023-05-14T01:08:01.200Z,8.97
2023-05-14T01:09:01.247Z,8.97
2023-05-14T01:10:01.220Z,8.95
2023-05-14T01:11:01.178Z,8.94
2023-05-14T01:12:01.214Z,8.91
2023-05-14T01:13:01.170Z,9.06
2023-05-14T01:14:01.164Z,9.02
2023-05-14T01:15:01.192Z,8.99
2023-05-14T01:16:01.199Z,9.10
2023-05-14T01:17:01.156Z,9.00
2023-05-14T01:18:01.177Z,9.03
2023-05-14T01:19:01.224Z,9.04
2023-05-14T01:20:01.125Z,8.95
2023-05-14T01:21:01.139Z,9.00
2023-05-14T01:22:01.096Z,8.94
2023-05-14T01:23:01.089Z,9.10
2023-05-14T01:24:01.153Z,8.95
2023-05-14T01:25:01.082Z,8.92
2023-05-14T01:26:01.089Z,8.88
2023-05-14T01:27:01.070Z,8.73
2023-05-14T01:28:01.059Z,8.58
2023-05-14T01:29:01.047Z,8.56
2023-05-14T01:30:01.043Z,8.61
2023-05-14T01:31:01.051Z,8.53
2023-05-14T01:32:01.052Z,8.67
2023-05-14T01:33:01.042Z,8.61
2023-05-14T01:34:01.007Z,8.78
2023-05-14T01:35:01.029Z,8.74
2023-05-14T01:36:01.024Z,8.82
2023-05-14T01:37:00.988Z,8.91
2023-05-14T01:38:01.018Z,8.94
2023-05-14T01:39:00.972Z,9.02
2023-05-14T01:40:01.019Z,8.97
2023-05-14T01:41:00.965Z,8.97
2023-05-14T01:42:00.954Z,8.97
2023-05-14T01:43:00.967Z,8.95
2023-05-14T01:44:00.924Z,8.88
2023-05-14T01:45:00.939Z,9.03
2023-05-14T01:46:00.996Z,8.87
2023-05-14T01:47:00.898Z,8.85
2023-05-14T01:48:00.942Z,8.87
2023-05-14T01:49:00.909Z,8.88
2023-05-14T01:50:00.954Z,8.79
2023-05-14T01:51:00.874Z,8.91
2023-05-14T01:52:00.876Z,8.94
2023-05-14T01:53:00.854Z,8.88
2023-05-14T01:54:00.850Z,8.84
2023-05-14T01:55:00.866Z,8.89
2023-05-14T01:56:00.837Z,8.82
2023-05-14T01:57:00.819Z,8.88
2023-05-14T01:58:00.822Z,8.84
2023-05-14T01:59:00.841Z,8.89
2023-05-14T02:00:00.831Z,8.88
2023-05-14T02:01:00.830Z,8.88
2023-05-14T02:02:00.961Z,8.97
2023-05-14T02:03:00.806Z,9.04
2023-05-14T02:04:00.862Z,9.00
2023-05-14T02:05:00.754Z,9.06
2023-05-14T02:06:00.748Z,9.04
2023-05-14T02:07:00.747Z,9.11
2023-05-14T02:08:00.743Z,9.08
2023-05-14T02:09:00.748Z,9.11
2023-05-14T02:10:01.728Z,9.18
2023-05-14T02:11:00.709Z,9.19
2023-05-14T02:12:00.713Z,9.16
2023-05-14T02:13:00.745Z,9.18
2023-05-14T02:14:00.720Z,9.13
2023-05-14T02:15:00.688Z,9.13
2023-05-14T02:16:00.722Z,9.13
2023-05-14T02:17:00.667Z,9.21
2023-05-14T02:18:00.708Z,9.16
2023-05-14T02:19:00.711Z,9.21
2023-05-14T02:20:00.662Z,9.13
2023-05-14T02:21:00.646Z,9.21
2023-05-14T02:22:00.633Z,9.21
2023-05-14T02:23:00.664Z,9.19
2023-05-14T02:24:00.639Z,9.04
2023-05-14T02:25:00.603Z,9.03
2023-05-14T02:26:00.611Z,8.92
2023-05-14T02:27:00.623Z,8.82
2023-05-14T02:28:00.610Z,8.85
2023-05-14T02:29:00.590Z,8.64
2023-05-14T02:30:00.640Z,8.58
2023-05-14T02:31:00.612Z,8.46
2023-05-14T02:32:00.586Z,8.33
2023-05-14T02:33:00.644Z,8.23
2023-05-14T02:34:00.549Z,8.26
2023-05-14T02:35:00.531Z,8.28
2023-05-14T02:36:00.625Z,8.28
2023-05-14T02:37:00.548Z,8.34
2023-05-14T02:38:00.518Z,8.45
2023-05-14T02:39:00.499Z,8.46
2023-05-14T02:40:00.501Z,8.49
2023-05-14T02:41:00.483Z,8.53
2023-05-14T02:42:00.504Z,8.58
2023-05-14T02:43:00.483Z,8.58
2023-05-14T02:44:00.473Z,8.33
2023-05-14T02:45:00.462Z,8.16
2023-05-14T02:46:00.444Z,8.10
2023-05-14T02:47:00.561Z,8.15
2023-05-14T02:48:00.475Z,8.15
2023-05-14T02:49:00.444Z,8.15
2023-05-14T02:50:00.419Z,8.24
2023-05-14T02:51:00.412Z,8.10
2023-05-14T02:52:00.434Z,8.10
2023-05-14T02:53:00.398Z,8.26
2023-05-14T02:54:00.385Z,8.23
2023-05-14T02:55:00.393Z,8.19
2023-05-14T02:56:00.386Z,8.19
2023-05-14T02:57:00.394Z,8.34
2023-05-14T02:58:00.355Z,8.31
2023-05-14T02:59:01.351Z,8.27
2023-05-14T03:00:00.346Z,8.30
2023-05-14T03:01:00.394Z,8.27
2023-05-14T03:02:00.377Z,8.30
2023-05-14T03:03:00.358Z,8.33
2023-05-14T03:04:00.320Z,8.31
2023-05-14T03:05:00.293Z,8.28
2023-05-14T03:06:01.322Z,8.28
2023-05-14T03:07:00.311Z,8.44
2023-05-14T03:08:00.276Z,8.48
2023-05-14T03:09:00.267Z,8.52
2023-05-14T03:10:00.316Z,8.41
2023-05-14T03:11:00.287Z,8.46
2023-05-14T03:12:00.258Z,8.51
2023-05-14T03:13:00.285Z,8.56
2023-05-14T03:14:00.235Z,8.45
2023-05-14T03:15:00.228Z,8.49
2023-05-14T03:16:00.242Z,8.46
2023-05-14T03:17:00.240Z,8.48
2023-05-14T03:18:00.230Z,8.41
2023-05-14T03:19:00.262Z,8.28
2023-05-14T03:20:00.213Z,8.26
2023-05-14T03:21:00.202Z,8.24
2023-05-14T03:22:00.180Z,8.18
2023-05-14T03:23:00.169Z,8.10
2023-05-14T03:24:00.156Z,8.08
2023-05-14T03:25:00.173Z,8.10
2023-05-14T03:26:00.159Z,8.06
2023-05-14T03:27:00.137Z,7.97
2023-05-14T03:28:00.136Z,7.98
2023-05-14T03:29:00.148Z,8.05
2023-05-14T03:30:00.209Z,8.06
2023-05-14T03:31:00.155Z,8.16
2023-05-14T03:32:00.120Z,8.18
2023-05-14T03:33:00.239Z,8.09
2023-05-14T03:34:00.180Z,8.16
2023-05-14T03:35:00.111Z,8.13
2023-05-14T03:36:00.077Z,8.16
2023-05-14T03:37:00.062Z,8.10
2023-05-14T03:38:00.063Z,8.13
2023-05-14T03:39:00.097Z,8.06
2023-05-14T03:40:00.054Z,8.16
2023-05-14T03:41:00.046Z,8.18
2023-05-14T03:42:00.032Z,8.03
2023-05-14T03:43:00.015Z,8.06
2023-05-14T03:44:00.047Z,8.03
2023-05-14T03:45:00.000Z,8.09
2023-05-14T03:45:59.997Z,8.26
2023-05-14T03:46:59.982Z,8.26
2023-05-14T03:48:00.047Z,8.30
2023-05-14T03:49:00.028Z,8.36
2023-05-14T03:49:59.957Z,8.37
2023-05-14T03:50:59.950Z,8.46
2023-05-14T03:51:59.936Z,8.49
2023-05-14T03:52:59.951Z,8.49
2023-05-14T03:53:59.919Z,8.61
2023-05-14T03:54:59.920Z,8.61
2023-05-14T03:55:59.921Z,8.61
2023-05-14T03:56:59.897Z,8.58
2023-05-14T03:57:59.942Z,8.60
2023-05-14T03:58:59.882Z,8.55
2023-05-14T03:59:59.893Z,8.64
2023-05-14T04:00:59.875Z,8.55
2023-05-14T04:01:59.960Z,8.66
2023-05-14T04:03:00.008Z,8.60
2023-05-14T04:03:59.934Z,8.58
2023-05-14T04:04:59.872Z,8.61
2023-05-14T04:05:59.898Z,8.60
2023-05-14T04:06:59.926Z,8.60
2023-05-14T04:07:59.864Z,8.64
2023-05-14T04:08:59.929Z,8.63
2023-05-14T04:10:00.702Z,8.70
2023-05-14T04:10:59.803Z,8.74
2023-05-14T04:11:59.808Z,8.91
2023-05-14T04:12:59.774Z,9.18
2023-05-14T04:13:59.765Z,9.41
2023-05-14T04:14:59.772Z,9.79
2023-05-14T04:15:59.817Z,9.97
2023-05-14T04:17:00.458Z,10.33
2023-05-14T04:17:59.767Z,10.53
2023-05-14T04:18:59.752Z,10.56
2023-05-14T04:19:59.734Z,10.42
2023-05-14T04:20:59.736Z,10.54
2023-05-14T04:21:59.750Z,10.76
2023-05-14T04:22:59.696Z,10.84
2023-05-14T04:23:59.685Z,10.69
2023-05-14T04:24:59.685Z,10.37
2023-05-14T04:25:59.725Z,10.28
2023-05-14T04:26:59.687Z,10.23
2023-05-14T04:27:59.686Z,10.19
2023-05-14T04:28:59.644Z,10.15
2023-05-14T04:29:59.648Z,10.15
2023-05-14T04:30:59.657Z,9.92
2023-05-14T04:31:59.752Z,9.74
2023-05-14T04:32:59.648Z,9.74
2023-05-14T04:33:59.605Z,9.77
2023-05-14T04:34:59.608Z,9.76
2023-05-14T04:35:59.617Z,9.51
2023-05-14T04:36:59.596Z,9.59
2023-05-14T04:37:59.582Z,9.59
2023-05-14T04:38:59.572Z,9.59
2023-05-14T04:39:59.579Z,9.47
2023-05-14T04:40:59.578Z,9.44
2023-05-14T04:41:59.568Z,9.43
2023-05-14T04:42:59.651Z,9.37
2023-05-14T04:43:59.529Z,9.44
2023-05-14T04:44:59.550Z,9.48
2023-05-14T04:45:59.539Z,9.32
2023-05-14T04:46:59.507Z,9.36
2023-05-14T04:47:59.596Z,9.32
2023-05-14T04:48:59.507Z,9.36
2023-05-14T04:49:59.514Z,9.39
2023-05-14T04:50:59.477Z,9.43
2023-05-14T04:51:59.472Z,9.51
2023-05-14T04:52:59.463Z,9.44
2023-05-14T04:53:59.473Z,9.48
2023-05-14T04:54:59.457Z,9.43
2023-05-14T04:56:00.438Z,9.46
2023-05-14T04:56:59.435Z,9.48
2023-05-14T04:57:59.422Z,9.44
2023-05-14T04:58:59.410Z,9.55
2023-05-14T04:59:59.424Z,9.59
2023-05-14T05:00:59.446Z,9.66
2023-05-14T05:01:59.391Z,9.65
2023-05-14T05:02:59.477Z,9.66
2023-05-14T05:03:59.456Z,9.87
2023-05-14T05:04:59.404Z,9.84
2023-05-14T05:05:59.370Z,9.97
2023-05-14T05:06:59.359Z,9.89
2023-05-14T05:07:59.362Z,9.98
2023-05-14T05:09:00.608Z,9.99
2023-05-14T05:09:59.356Z,10.05
2023-05-14T05:10:59.323Z,10.15
2023-05-14T05:11:59.330Z,9.99
2023-05-14T05:12:59.315Z,10.10
2023-05-14T05:13:59.333Z,10.09
2023-05-14T05:14:59.304Z,10.16
2023-05-14T05:15:59.354Z,10.22
2023-05-14T05:16:59.287Z,10.22
2023-05-14T05:17:59.338Z,10.19
2023-05-14T05:18:59.337Z,10.33
2023-05-14T05:19:59.262Z,10.31
2023-05-14T05:20:59.247Z,10.41
2023-05-14T05:21:59.247Z,10.46
2023-05-14T05:22:59.228Z,10.48
2023-05-14T05:23:59.242Z,10.53
2023-05-14T05:25:00.232Z,10.42
2023-05-14T05:25:59.209Z,10.25
2023-05-14T05:26:59.196Z,10.17
2023-05-14T05:27:59.222Z,10.22
2023-05-14T05:28:59.210Z,10.17
2023-05-14T05:29:59.173Z,10.20
2023-05-14T05:30:59.195Z,10.26
2023-05-14T05:31:59.193Z,10.30
2023-05-14T05:32:59.265Z,10.19
2023-05-14T05:33:59.168Z,10.25
2023-05-14T05:34:59.157Z,10.19
2023-05-14T05:35:59.134Z,10.40
2023-05-14T05:36:59.117Z,10.46
2023-05-14T05:38:01.137Z,10.63
2023-05-14T05:38:59.112Z,10.42
2023-05-14T05:39:59.103Z,10.44
2023-05-14T05:40:59.096Z,10.60
2023-05-14T05:41:59.117Z,10.56
2023-05-14T05:42:59.113Z,10.81
2023-05-14T05:43:59.078Z,10.84
2023-05-14T05:44:59.060Z,10.99
2023-05-14T05:45:59.093Z,10.99
2023-05-14T05:47:31.052Z,11.05
2023-05-14T05:47:59.163Z,11.00
2023-05-14T05:48:59.038Z,11.05
2023-05-14T05:49:59.022Z,11.23
2023-05-14T05:50:59.021Z,11.27
2023-05-14T05:51:59.085Z,11.26
2023-05-14T05:52:59.005Z,11.33
2023-05-14T05:53:59.001Z,11.50
2023-05-14T05:54:59.000Z,11.72
2023-05-14T05:55:58.982Z,11.87
2023-05-14T05:56:59.004Z,11.90
2023-05-14T05:57:58.970Z,11.59
2023-05-14T05:58:58.966Z,11.43
2023-05-14T05:59:58.954Z,11.40
2023-05-14T06:00:58.974Z,11.55
2023-05-14T06:01:58.972Z,11.59
2023-05-14T06:02:58.975Z,11.40
2023-05-14T06:03:58.927Z,11.11
2023-05-14T06:04:58.937Z,11.27
2023-05-14T06:05:58.936Z,11.45
2023-05-14T06:06:58.897Z,11.69
2023-05-14T06:07:58.892Z,11.88
2023-05-14T06:08:58.888Z,11.99
2023-05-14T06:09:58.887Z,11.70
2023-05-14T06:10:58.908Z,11.94
2023-05-14T06:11:58.876Z,11.86
2023-05-14T06:12:58.870Z,11.91
2023-05-14T06:13:58.845Z,12.03
2023-05-14T06:14:58.841Z,12.17
2023-05-14T06:15:58.928Z,12.10
2023-05-14T06:16:58.860Z,12.45
2023-05-14T06:17:58.838Z,12.70
2023-05-14T06:18:58.861Z,12.86
2023-05-14T06:19:58.831Z,12.90
2023-05-14T06:20:58.842Z,12.94
2023-05-14T06:21:58.791Z,12.57
2023-05-14T06:22:58.779Z,12.83
2023-05-14T06:23:58.781Z,12.82
2023-05-14T06:24:58.792Z,12.83
2023-05-14T06:25:58.765Z,13.15
2023-05-14T06:26:58.759Z,13.46
2023-05-14T06:27:58.750Z,13.39
2023-05-14T06:28:58.733Z,13.62
2023-05-14T06:29:58.750Z,13.87
2023-05-14T06:30:58.715Z,14.17
2023-05-14T06:31:58.738Z,14.45
2023-05-14T06:32:58.762Z,14.54
2023-05-14T06:33:58.699Z,14.22
2023-05-14T06:34:58.710Z,13.89
2023-05-14T06:35:58.683Z,13.54
2023-05-14T06:36:58.664Z,13.62
2023-05-14T06:37:59.665Z,13.65
2023-05-14T06:38:58.684Z,13.67
2023-05-14T06:39:58.671Z,14.05
2023-05-14T06:40:58.645Z,14.33
2023-05-14T06:41:58.627Z,14.84
2023-05-14T06:42:58.623Z,14.60
2023-05-14T06:43:58.642Z,14.40
2023-05-14T06:44:58.619Z,14.63
2023-05-14T06:45:58.593Z,14.30
2023-05-14T06:46:58.589Z,14.41
2023-05-14T06:47:58.701Z,14.23
2023-05-14T06:48:59.637Z,14.10
2023-05-14T06:49:59.580Z,14.12
2023-05-14T06:50:58.549Z,14.23
2023-05-14T06:51:59.552Z,14.12
2023-05-14T06:52:58.550Z,14.00
2023-05-14T06:53:58.564Z,13.97
2023-05-14T06:54:58.529Z,14.17
2023-05-14T06:55:58.521Z,14.30
2023-05-14T06:56:58.508Z,14.18
2023-05-14T06:57:58.530Z,14.00
2023-05-14T06:58:58.526Z,14.14
2023-05-14T06:59:58.488Z,14.32
2023-05-14T07:00:58.509Z,14.66
2023-05-14T07:01:58.666Z,14.81
2023-05-14T07:02:58.517Z,15.04
2023-05-14T07:03:58.490Z,15.11
2023-05-14T07:04:58.466Z,15.00
2023-05-14T07:05:58.454Z,14.91
2023-05-14T07:06:58.443Z,15.19
2023-05-14T07:07:58.493Z,15.18
2023-05-14T07:08:58.419Z,15.36
2023-05-14T07:09:58.411Z,15.04
2023-05-14T07:10:58.410Z,14.85
2023-05-14T07:11:58.430Z,14.91
2023-05-14T07:12:58.434Z,15.04
2023-05-14T07:13:58.386Z,14.89
2023-05-14T07:14:58.374Z,14.94
2023-05-14T07:15:58.359Z,14.97
2023-05-14T07:16:58.391Z,14.96
2023-05-14T07:17:58.480Z,15.00
2023-05-14T07:18:58.452Z,15.18
2023-05-14T07:19:58.354Z,15.42
2023-05-14T07:20:58.401Z,15.62
2023-05-14T07:21:58.344Z,15.77
2023-05-14T07:22:58.312Z,15.57
2023-05-14T07:23:58.314Z,15.47
2023-05-14T07:24:58.301Z,15.62
2023-05-14T07:25:58.288Z,15.67
2023-05-14T07:26:58.331Z,15.62
2023-05-14T07:27:58.272Z,15.49
2023-05-14T07:28:58.270Z,15.47
2023-05-14T07:29:58.278Z,15.59
2023-05-14T07:30:58.356Z,15.79
2023-05-14T07:31:58.279Z,16.08
2023-05-14T07:32:58.300Z,16.16
2023-05-14T07:33:58.236Z,16.09
2023-05-14T07:34:58.225Z,15.91
2023-05-14T07:35:58.259Z,16.12
2023-05-14T07:36:58.206Z,16.16
2023-05-14T07:37:58.237Z,16.01
2023-05-14T07:38:58.195Z,15.95
2023-05-14T07:39:58.193Z,16.13
2023-05-14T07:40:58.206Z,16.00
2023-05-14T07:41:58.168Z,15.75
2023-05-14T07:42:58.185Z,15.79
2023-05-14T07:43:58.161Z,16.05
2023-05-14T07:44:58.150Z,16.17
2023-05-14T07:45:58.178Z,16.09
2023-05-14T07:46:58.155Z,15.95
2023-05-14T07:47:58.261Z,15.95
2023-05-14T07:48:58.124Z,15.97
2023-05-14T07:49:58.116Z,16.31
2023-05-14T07:50:58.129Z,16.35
2023-05-14T07:51:58.096Z,16.16
2023-05-14T07:52:58.100Z,16.47
2023-05-14T07:53:58.078Z,16.61
2023-05-14T07:54:58.127Z,16.61
2023-05-14T07:55:58.099Z,16.83
2023-05-14T07:56:58.066Z,16.56
2023-05-14T07:57:58.047Z,16.46
2023-05-14T07:58:58.044Z,16.38
2023-05-14T07:59:58.051Z,16.58
2023-05-14T08:00:58.045Z,16.51
2023-05-14T08:01:58.066Z,16.46
2023-05-14T08:02:59.279Z,16.26
2023-05-14T08:03:58.067Z,16.13
2023-05-14T08:04:57.997Z,16.09
2023-05-14T08:05:59.011Z,15.95
2023-05-14T08:06:57.992Z,15.95
2023-05-14T08:07:57.993Z,16.04
2023-05-14T08:08:58.021Z,16.13
2023-05-14T08:09:58.000Z,16.02
2023-05-14T08:10:58.036Z,16.13
2023-05-14T08:11:57.953Z,16.33
2023-05-14T08:12:57.940Z,16.36
2023-05-14T08:13:57.953Z,16.28
2023-05-14T08:14:57.947Z,16.66
2023-05-14T08:15:57.923Z,16.76
2023-05-14T08:16:57.961Z,16.97
2023-05-14T08:17:57.935Z,16.99
2023-05-14T08:18:57.911Z,17.08
2023-05-14T08:19:57.907Z,16.69
2023-05-14T08:20:57.981Z,16.84
2023-05-14T08:21:57.943Z,16.81
2023-05-14T08:22:57.869Z,17.01
2023-05-14T08:23:57.856Z,16.90
2023-05-14T08:24:57.886Z,16.86
2023-05-14T08:25:57.846Z,16.75
2023-05-14T08:26:57.848Z,16.61
2023-05-14T08:27:57.825Z,16.79
2023-05-14T08:28:57.816Z,16.72
2023-05-14T08:29:57.840Z,16.71
2023-05-14T08:30:57.877Z,17.20
2023-05-14T08:31:58.253Z,17.19
2023-05-14T08:32:57.832Z,17.26
2023-05-14T08:33:57.809Z,17.42
2023-05-14T08:34:57.814Z,17.63
2023-05-14T08:35:57.780Z,16.76
2023-05-14T08:36:57.761Z,16.84
2023-05-14T08:37:57.756Z,17.31
2023-05-14T08:38:57.783Z,17.60
2023-05-14T08:39:57.741Z,17.65
2023-05-14T08:40:57.742Z,17.57
2023-05-14T08:41:57.718Z,17.72
2023-05-14T08:42:57.731Z,17.72
2023-05-14T08:43:57.735Z,17.92
2023-05-14T08:44:57.700Z,17.82
2023-05-14T08:45:57.683Z,17.95
2023-05-14T08:46:57.687Z,17.67
2023-05-14T08:47:57.737Z,17.65
2023-05-14T08:48:57.750Z,17.83
2023-05-14T08:49:57.676Z,17.74
2023-05-14T08:50:57.650Z,17.64
2023-05-14T08:51:57.640Z,17.59
2023-05-14T08:52:57.665Z,17.74
2023-05-14T08:53:57.647Z,17.64
2023-05-14T08:54:57.625Z,17.54
2023-05-14T08:55:58.617Z,17.27
2023-05-14T08:56:57.599Z,17.41
2023-05-14T08:57:57.635Z,17.36
2023-05-14T08:58:57.584Z,17.67
2023-05-14T08:59:57.585Z,17.67
2023-05-14T09:00:57.576Z,17.72
2023-05-14T09:01:57.649Z,17.70
2023-05-14T09:02:57.655Z,17.92
2023-05-14T09:03:57.559Z,17.95
2023-05-14T09:04:57.537Z,17.92
2023-05-14T09:05:59.379Z,17.86
2023-05-14T09:06:57.593Z,17.80
2023-05-14T09:07:57.554Z,17.64
2023-05-14T09:08:57.579Z,17.85
2023-05-14T09:09:58.383Z,17.59
2023-05-14T09:10:57.501Z,17.95
2023-05-14T09:11:57.520Z,18.01
2023-05-14T09:12:57.512Z,18.22
2023-05-14T09:13:57.481Z,18.33
2023-05-14T09:14:57.486Z,18.35
2023-05-14T09:15:57.564Z,18.20
2023-05-14T09:16:57.488Z,18.05
2023-05-14T09:17:57.526Z,17.72
2023-05-14T09:18:57.512Z,17.51
2023-05-14T09:19:57.439Z,17.56
2023-05-14T09:20:57.461Z,17.67
2023-05-14T09:21:57.440Z,17.44
2023-05-14T09:22:57.433Z,17.59
2023-05-14T09:23:57.430Z,17.72
2023-05-14T09:24:58.384Z,17.68
2023-05-14T09:25:57.431Z,17.60
2023-05-14T09:26:57.367Z,17.68
2023-05-14T09:27:58.750Z,17.46
2023-05-14T09:28:58.360Z,17.11
2023-05-14T09:29:57.375Z,17.44
2023-05-14T09:30:57.626Z,17.64
2023-05-14T09:31:57.448Z,17.82
2023-05-14T09:32:57.342Z,17.51
2023-05-14T09:33:57.318Z,17.41
2023-05-14T09:34:57.362Z,17.39
2023-05-14T09:35:58.434Z,17.65
2023-05-14T09:36:57.299Z,18.00
2023-05-14T09:37:57.345Z,18.19
2023-05-14T09:38:57.433Z,18.19
2023-05-14T09:39:57.610Z,17.76
2023-05-14T09:40:57.359Z,17.51
2023-05-14T09:41:57.344Z,17.49
2023-05-14T09:42:57.850Z,17.65
2023-05-14T09:43:57.245Z,17.71
2023-05-14T09:44:57.262Z,17.52
2023-05-14T09:45:57.243Z,17.82
2023-05-14T09:46:57.211Z,17.83
2023-05-14T09:47:57.392Z,18.31
2023-05-14T09:48:57.226Z,18.45
2023-05-14T09:49:57.229Z,18.08
2023-05-14T09:50:57.188Z,18.10
2023-05-14T09:51:57.187Z,18.18
2023-05-14T09:52:57.170Z,18.15
2023-05-14T09:53:57.207Z,18.34
2023-05-14T09:54:57.157Z,18.49
2023-05-14T09:55:57.147Z,18.38
2023-05-14T09:56:57.144Z,18.53
2023-05-14T09:57:57.140Z,18.95
2023-05-14T09:58:57.150Z,19.19
2023-05-14T09:59:57.118Z,19.09
2023-05-14T10:00:57.124Z,18.88
2023-05-14T10:01:57.112Z,18.25
2023-05-14T10:02:57.189Z,17.90
2023-05-14T10:03:57.134Z,18.10
2023-05-14T10:04:57.079Z,18.08
2023-05-14T10:05:57.084Z,18.03
2023-05-14T10:06:57.081Z,18.08
2023-05-14T10:07:57.109Z,18.22
2023-05-14T10:08:57.062Z,18.83
2023-05-14T10:09:58.233Z,18.56
2023-05-14T10:10:57.028Z,18.40
2023-05-14T10:11:57.023Z,18.37
2023-05-14T10:12:57.045Z,18.11
2023-05-14T10:13:57.007Z,17.83
2023-05-14T10:14:57.064Z,17.82
2023-05-14T10:15:56.993Z,17.71
2023-05-14T10:16:57.056Z,17.60
2023-05-14T10:17:57.106Z,17.54
2023-05-14T10:18:57.633Z,17.54
2023-05-14T10:19:57.966Z,17.52
2023-05-14T10:20:56.952Z,17.54
2023-05-14T10:21:57.008Z,17.63
2023-05-14T10:22:56.976Z,17.52
2023-05-14T10:23:56.936Z,17.60
2023-05-14T10:24:56.937Z,17.70
2023-05-14T10:25:56.928Z,17.76
2023-05-14T10:26:56.949Z,17.89
2023-05-14T10:27:56.917Z,18.11
2023-05-14T10:28:56.902Z,18.50
2023-05-14T10:29:56.964Z,18.90
2023-05-14T10:30:56.945Z,19.04
2023-05-14T10:31:56.967Z,18.43
2023-05-14T10:32:56.910Z,18.23
2023-05-14T10:33:59.732Z,18.10
2023-05-14T10:34:56.855Z,18.20
2023-05-14T10:35:56.880Z,18.20
2023-05-14T10:36:56.865Z,18.18
2023-05-14T10:37:56.840Z,18.16
2023-05-14T10:38:56.824Z,18.33
2023-05-14T10:39:56.819Z,18.40
2023-05-14T10:40:56.858Z,18.55
2023-05-14T10:41:56.798Z,18.40
2023-05-14T10:42:56.793Z,18.55
2023-05-14T10:43:56.789Z,19.04
2023-05-14T10:44:56.803Z,19.56
2023-05-14T10:45:56.802Z,19.44
2023-05-14T10:46:56.881Z,19.30
2023-05-14T10:47:56.814Z,19.48
2023-05-14T10:48:56.756Z,19.36
2023-05-14T10:49:56.740Z,19.15
2023-05-14T10:50:56.846Z,19.00
2023-05-14T10:51:56.721Z,18.99
2023-05-14T10:52:56.717Z,18.83
2023-05-14T10:53:56.712Z,18.52
2023-05-14T10:54:56.722Z,18.95
2023-05-14T10:55:56.723Z,19.33
2023-05-14T10:56:56.685Z,19.47
2023-05-14T10:57:56.687Z,19.40
2023-05-14T10:58:56.683Z,19.02
2023-05-14T10:59:56.693Z,18.88
2023-05-14T11:00:56.654Z,18.40
2023-05-14T11:01:56.700Z,18.47
2023-05-14T11:02:56.759Z,18.50
2023-05-14T11:03:56.660Z,18.28
2023-05-14T11:04:56.657Z,18.40
2023-05-14T11:05:56.616Z,18.62
2023-05-14T11:06:56.609Z,18.49
2023-05-14T11:07:56.603Z,18.55
2023-05-14T11:08:56.600Z,18.47
2023-05-14T11:09:56.617Z,18.50
2023-05-14T11:10:56.585Z,18.15
2023-05-14T11:11:56.573Z,18.25
2023-05-14T11:12:56.562Z,18.55
2023-05-14T11:13:56.594Z,18.80
2023-05-14T11:14:56.572Z,19.07
2023-05-14T11:15:56.633Z,19.07
2023-05-14T11:16:56.590Z,18.96
2023-05-14T11:17:56.662Z,18.73
2023-05-14T11:18:56.584Z,18.70
2023-05-14T11:19:56.523Z,18.52
2023-05-14T11:20:56.513Z,18.33
2023-05-14T11:21:56.501Z,18.53
2023-05-14T11:22:56.491Z,18.44
2023-05-14T11:23:56.538Z,18.43
2023-05-14T11:24:56.506Z,18.47
2023-05-14T11:25:56.483Z,18.53
2023-05-14T11:26:56.465Z,18.53
2023-05-14T11:27:56.486Z,18.60
2023-05-14T11:28:56.476Z,18.59
2023-05-14T11:29:56.449Z,18.71
2023-05-14T11:30:56.437Z,18.59
2023-05-14T11:31:56.486Z,18.35
2023-05-14T11:32:56.487Z,18.55
2023-05-14T11:33:56.424Z,18.52
2023-05-14T11:34:56.409Z,18.29
2023-05-14T11:35:56.406Z,18.41
2023-05-14T11:36:56.395Z,18.43
2023-05-14T11:37:56.422Z,18.43
2023-05-14T11:38:56.382Z,18.70
2023-05-14T11:39:56.375Z,18.74
2023-05-14T11:40:56.365Z,18.95
2023-05-14T11:41:56.393Z,19.09
2023-05-14T11:42:56.371Z,18.88
2023-05-14T11:43:56.341Z,18.88
2023-05-14T11:44:56.341Z,18.92
2023-05-14T11:45:56.379Z,18.78
2023-05-14T11:47:28.298Z,19.15
2023-05-14T11:47:56.345Z,19.11
2023-05-14T11:48:56.310Z,19.37
2023-05-14T11:49:56.309Z,19.47
2023-05-14T11:50:56.303Z,19.22
2023-05-14T11:51:56.318Z,19.37
2023-05-14T11:52:56.292Z,19.41
2023-05-14T11:53:56.269Z,19.18
2023-05-14T11:54:56.266Z,19.02
2023-05-14T11:55:56.260Z,19.14
2023-05-14T11:56:56.273Z,19.34
2023-05-14T11:57:56.248Z,19.41
2023-05-14T11:58:56.248Z,19.62
2023-05-14T11:59:56.232Z,19.70
2023-05-14T12:00:57.257Z,19.86
2023-05-14T12:01:56.230Z,19.99
2023-05-14T12:02:56.315Z,20.10
2023-05-14T12:03:56.259Z,20.11
2023-05-14T12:04:56.203Z,20.10
2023-05-14T12:05:56.220Z,19.89
2023-05-14T12:06:56.173Z,19.62
2023-05-14T12:07:56.177Z,19.49
2023-05-14T12:08:56.153Z,19.31
2023-05-14T12:09:56.149Z,19.18
2023-05-14T12:10:56.178Z,19.04
2023-05-14T12:11:56.138Z,18.80
2023-05-14T12:12:56.122Z,18.75
2023-05-14T12:13:56.108Z,18.83
2023-05-14T12:14:56.121Z,18.89
2023-05-14T12:15:56.169Z,18.92
2023-05-14T12:16:56.086Z,18.92
2023-05-14T12:17:56.145Z,18.98
2023-05-14T12:18:56.125Z,19.02
2023-05-14T12:19:56.114Z,19.09
2023-05-14T12:20:56.060Z,19.22
2023-05-14T12:21:56.047Z,19.24
2023-05-14T12:22:56.049Z,19.16
2023-05-14T12:23:56.059Z,19.27
2023-05-14T12:24:56.073Z,19.56
2023-05-14T12:25:56.041Z,19.48
2023-05-14T12:26:56.021Z,19.54
2023-05-14T12:27:56.009Z,19.39
2023-05-14T12:28:56.023Z,19.39
2023-05-14T12:29:56.294Z,19.37
2023-05-14T12:30:55.989Z,19.40
2023-05-14T12:31:56.038Z,19.18
2023-05-14T12:32:56.099Z,19.19
2023-05-14T12:33:55.987Z,19.04
2023-05-14T12:34:55.955Z,19.07
2023-05-14T12:35:56.201Z,18.93
2023-05-14T12:36:55.945Z,18.96
2023-05-14T12:37:55.967Z,18.95
2023-05-14T12:38:55.951Z,18.92
2023-05-14T12:39:55.934Z,18.84
2023-05-14T12:40:55.924Z,18.92
2023-05-14T12:41:55.906Z,18.84
2023-05-14T12:42:56.895Z,18.80
2023-05-14T12:43:56.911Z,18.89
2023-05-14T12:44:56.897Z,18.83
2023-05-14T12:45:55.882Z,18.93
2023-05-14T12:46:55.925Z,19.00
2023-05-14T12:47:55.888Z,19.11
2023-05-14T12:48:55.920Z,19.15
2023-05-14T12:49:55.856Z,19.29
2023-05-14T12:50:55.842Z,19.33
2023-05-14T12:52:07.691Z,19.34
2023-05-14T12:52:57.863Z,19.36
2023-05-14T12:53:55.849Z,19.39
2023-05-14T12:54:55.810Z,19.45
2023-05-14T12:55:55.816Z,19.48
2023-05-14T12:56:55.794Z,19.49
2023-05-14T12:57:55.817Z,19.74
2023-05-14T12:58:55.780Z,19.54
2023-05-14T12:59:55.786Z,19.19
2023-05-14T13:00:55.809Z,19.15
2023-05-14T13:01:55.761Z,19.24